Time;durP1;ratioP1;P1;durP2;ratioP2;P2;SDS_P1;SDS_P2;PMS_P1;PMS_P2;Temp;Humidity;BMP_temperature;BMP_pressure;BME280_temperature;BME280_humidity;BME280_pressure;Samples;Min_cycle;Max_cycle;Signal;HPM_P1;HPM_P2
2022/03/19 00:01:13;;;;;;;;;;;14.40;53.40;;;;;;5076875;28;19969;-69
2022/03/19 00:03:39;;;;;;;;;;;14.40;53.40;;;;;;5076322;28;19924;-70
2022/03/19 00:06:06;;;;;;;;;;;14.40;53.40;;;;;;5076111;28;19924;-70
2022/03/19 00:08:33;;;;;;;;;;;14.30;53.40;;;;;;5076458;28;19993;-70
2022/03/19 00:11:00;;;;;;;;;;;14.30;53.40;;;;;;5076072;28;19924;-69
2022/03/19 00:13:27;;;;;;;;;;;14.30;53.40;;;;;;5094287;28;20371;-71
2022/03/19 00:15:54;;;;;;;;;;;14.30;53.40;;;;;;5076335;28;20303;-70
2022/03/19 00:18:22;;;;;;;;;;;14.30;53.40;;;;;;5093897;28;19947;-70
2022/03/19 00:20:48;;;;;;;;;;;14.30;53.40;;;;;;5094204;28;19932;-70
2022/03/19 00:23:15;;;;;;;;;;;14.30;53.90;;;;;;5075867;28;20415;-71
2022/03/19 00:25:42;;;;;;;;;;;14.30;53.40;;;;;;5075784;28;20394;-70
2022/03/19 00:28:09;;;;;;;;;;;14.30;53.40;;;;;;5076097;28;19924;-70
2022/03/19 00:30:35;;;;;;;;;;;14.30;53.40;;;;;;5076107;28;20391;-70
2022/03/19 00:33:03;;;;;;;;;;;14.30;53.50;;;;;;5075539;28;20384;-70
2022/03/19 00:35:29;;;;;;;;;;;14.20;53.40;;;;;;5094132;28;20291;-70
2022/03/19 00:37:56;;;;;;;;;;;14.30;53.40;;;;;;5075776;28;20323;-69
2022/03/19 00:40:23;;;;;;;;;;;14.20;53.40;;;;;;5076062;28;19931;-70
2022/03/19 00:42:50;;;;;;;;;;;14.20;53.40;;;;;;5075489;28;19928;-71
2022/03/19 00:45:16;;;;;;;;;;;14.20;53.40;;;;;;5093328;28;20024;-69
2022/03/19 00:47:43;;;;;;;;;;;14.20;53.40;;;;;;5093721;28;19928;-70
2022/03/19 00:50:11;;;;;;;;;;;14.20;53.40;;;;;;5075347;28;19924;-70
2022/03/19 00:52:38;;;;;;;;;;;14.20;53.40;;;;;;5074913;28;19930;-70
2022/03/19 00:55:05;;;;;;;;;;;14.20;53.40;;;;;;5092537;28;19965;-70
2022/03/19 00:57:37;;;;;;;;;;;14.20;53.40;;;;;;5075611;28;19928;-70
2022/03/19 01:00:04;;;;;;;;;;;14.20;53.40;;;;;;5093833;28;20283;-70
2022/03/19 01:02:31;;;;;;;;;;;14.20;53.40;;;;;;5075217;28;19924;-69
2022/03/19 01:04:57;;;;;;;;;;;14.20;53.40;;;;;;5075247;28;19925;-70
2022/03/19 01:07:25;;;;;;;;;;;14.20;53.40;;;;;;5075131;28;19924;-70
2022/03/19 01:09:52;;;;;;;;;;;14.20;53.40;;;;;;5075318;28;20292;-70
2022/03/19 01:12:18;;;;;;;;;;;14.10;53.40;;;;;;5092413;28;20295;-70
2022/03/19 01:14:45;;;;;;;;;;;14.10;53.40;;;;;;5092845;28;20297;-71
2022/03/19 01:17:12;;;;;;;;;;;14.10;53.40;;;;;;5075224;28;19924;-70
2022/03/19 01:19:53;;;;;;;;;;;14.10;53.40;;;;;;5092831;28;19924;-71
2022/03/19 01:22:21;;;;;;;;;;;14.10;53.40;;;;;;5074999;28;19946;-70
2022/03/19 01:24:49;;;;;;;;;;;14.20;53.40;;;;;;5092831;28;19924;-70
2022/03/19 01:27:16;;;;;;;;;;;14.10;53.30;;;;;;5074446;28;20603;-70
2022/03/19 01:29:43;;;;;;;;;;;14.20;53.40;;;;;;5074897;28;20308;-70
2022/03/19 01:32:09;;;;;;;;;;;14.20;53.40;;;;;;5092788;28;19928;-69
2022/03/19 01:34:36;;;;;;;;;;;14.20;53.40;;;;;;5074475;28;19925;-70
2022/03/19 01:37:03;;;;;;;;;;;14.20;53.40;;;;;;5074818;28;19924;-70
2022/03/19 01:39:29;;;;;;;;;;;14.00;53.20;;;;;;5092851;28;19931;-70
2022/03/19 01:41:58;;;;;;;;;;;14.20;53.30;;;;;;5092330;28;19924;-70
2022/03/19 01:44:24;;;;;;;;;;;14.20;53.30;;;;;;5074724;28;19924;-70
2022/03/19 01:46:54;;;;;;;;;;;14.20;53.30;;;;;;5074434;28;19924;-70
2022/03/19 01:49:21;;;;;;;;;;;14.20;53.20;;;;;;5074695;28;19924;-70
2022/03/19 01:51:48;;;;;;;;;;;14.20;53.20;;;;;;5074682;28;19924;-70
2022/03/19 01:54:14;;;;;;;;;;;14.20;53.20;;;;;;5092077;28;20395;-70
2022/03/19 01:56:41;;;;;;;;;;;14.20;53.20;;;;;;5074202;28;19924;-70
2022/03/19 01:59:09;;;;;;;;;;;14.20;53.20;;;;;;5074675;28;19994;-70
2022/03/19 02:01:36;;;;;;;;;;;14.20;53.20;;;;;;5074530;28;19925;-70
2022/03/19 02:04:02;;;;;;;;;;;14.30;53.20;;;;;;5074184;28;19924;-69
2022/03/19 02:06:29;;;;;;;;;;;14.30;53.20;;;;;;5092249;28;19954;-70
2022/03/19 02:08:56;;;;;;;;;;;14.30;53.10;;;;;;5091997;28;19993;-70
2022/03/19 02:11:22;;;;;;;;;;;14.30;53.10;;;;;;5092495;28;19924;-70
2022/03/19 02:13:49;;;;;;;;;;;14.30;53.10;;;;;;5073547;28;19924;-70
2022/03/19 02:16:17;;;;;;;;;;;14.30;53.10;;;;;;5092609;28;19928;-70
2022/03/19 02:18:44;;;;;;;;;;;14.30;53.10;;;;;;5074231;28;20372;-70
2022/03/19 02:21:10;;;;;;;;;;;14.60;53.20;;;;;;5092194;28;20038;-70
2022/03/19 02:26:22;;;;;;;;;;;14.30;53.00;;;;;;5074295;28;19924;-70
2022/03/19 02:28:49;;;;;;;;;;;14.30;53.00;;;;;;5074443;28;19924;-70
2022/03/19 02:31:15;;;;;;;;;;;16.40;54.20;;;;;;5074029;28;19935;-70
2022/03/19 02:33:42;;;;;;;;;;;14.40;53.10;;;;;;5092237;28;20024;-70
2022/03/19 02:36:09;;;;;;;;;;;14.40;53.00;;;;;;5092027;28;19930;-70
2022/03/19 02:38:36;;;;;;;;;;;14.30;53.00;;;;;;5074307;28;20400;-70
2022/03/19 02:41:04;;;;;;;;;;;14.30;52.90;;;;;;5092266;28;20288;-70
2022/03/19 02:43:31;;;;;;;;;;;14.30;52.90;;;;;;5074064;28;19930;-70
2022/03/19 02:45:58;;;;;;;;;;;14.30;52.90;;;;;;5073883;28;19928;-70
2022/03/19 02:48:24;;;;;;;;;;;14.30;52.90;;;;;;5074253;28;19924;-71
2022/03/19 02:50:51;;;;;;;;;;;14.40;53.00;;;;;;5092117;28;19930;-70
2022/03/19 02:53:17;;;;;;;;;;;14.30;52.90;;;;;;5091613;28;19930;-70
2022/03/19 02:55:45;;;;;;;;;;;14.40;52.90;;;;;;5091754;28;19924;-70
2022/03/19 02:58:13;;;;;;;;;;;14.30;52.90;;;;;;5091868;28;20388;-69
2022/03/19 03:00:40;;;;;;;;;;;14.30;52.90;;;;;;5074068;28;20466;-71
2022/03/19 03:03:07;;;;;;;;;;;14.40;53.00;;;;;;5090796;28;19928;-70
2022/03/19 03:05:34;;;;;;;;;;;14.30;52.90;;;;;;5091810;28;19924;-70
2022/03/19 03:08:01;;;;;;;;;;;14.40;52.90;;;;;;5091897;28;19924;-70
2022/03/19 03:10:27;;;;;;;;;;;14.30;52.90;;;;;;5074068;28;19930;-70
2022/03/19 03:12:54;;;;;;;;;;;14.40;52.90;;;;;;5073754;28;20375;-71
2022/03/19 03:15:23;;;;;;;;;;;14.30;52.90;;;;;;5091882;28;20287;-70
2022/03/19 03:17:49;;;;;;;;;;;14.30;52.90;;;;;;5076220;28;19975;-70
2022/03/19 03:20:16;;;;;;;;;;;14.30;52.90;;;;;;5094957;28;19928;-70
2022/03/19 03:22:44;;;;;;;;;;;14.30;52.90;;;;;;5095004;28;20011;-70
2022/03/19 03:25:11;;;;;;;;;;;14.30;52.90;;;;;;5095263;28;19978;-69
2022/03/19 03:27:38;;;;;;;;;;;14.30;52.90;;;;;;5077140;28;19931;-70
2022/03/19 03:30:05;;;;;;;;;;;14.30;52.90;;;;;;5077286;28;19924;-71
2022/03/19 03:32:33;;;;;;;;;;;14.30;52.90;;;;;;5077181;28;19946;-70
2022/03/19 03:34:59;;;;;;;;;;;14.30;52.90;;;;;;5094596;28;19924;-70
2022/03/19 03:37:26;;;;;;;;;;;14.30;52.90;;;;;;5076911;28;19928;-71
2022/03/19 03:39:53;;;;;;;;;;;14.30;52.90;;;;;;5077070;28;19924;-70
2022/03/19 03:42:19;;;;;;;;;;;14.30;52.90;;;;;;5094533;28;19931;-70
2022/03/19 03:44:46;;;;;;;;;;;14.30;52.90;;;;;;5076815;28;19935;-70
2022/03/19 03:47:12;;;;;;;;;;;14.30;52.90;;;;;;5095069;28;19925;-70
2022/03/19 03:49:40;;;;;;;;;;;14.30;52.90;;;;;;5094701;28;20530;-70
2022/03/19 03:52:08;;;;;;;;;;;14.30;52.80;;;;;;5094276;28;19946;-70
2022/03/19 03:54:35;;;;;;;;;;;14.30;52.80;;;;;;5094420;28;19928;-70
2022/03/19 03:57:02;;;;;;;;;;;14.30;52.80;;;;;;5094618;28;19934;-70
2022/03/19 03:59:30;;;;;;;;;;;14.30;52.90;;;;;;5076794;28;19928;-70
2022/03/19 04:01:56;;;;;;;;;;;14.30;52.90;;;;;;5094517;28;20257;-70
2022/03/19 04:04:23;;;;;;;;;;;14.20;52.80;;;;;;5094109;28;19924;-70
2022/03/19 04:06:51;;;;;;;;;;;14.30;52.90;;;;;;5059581;28;20342;-70
2022/03/19 04:09:17;;;;;;;;;;;14.30;52.80;;;;;;5094107;28;19924;-70
2022/03/19 04:11:44;;;;;;;;;;;14.20;52.80;;;;;;5094337;28;19946;-70
2022/03/19 04:14:10;;;;;;;;;;;14.20;52.80;;;;;;5093994;28;19930;-70
2022/03/19 04:16:37;;;;;;;;;;;14.30;52.90;;;;;;5075727;28;19930;-70
2022/03/19 04:19:05;;;;;;;;;;;14.20;52.80;;;;;;5076158;28;19924;-69
2022/03/19 04:21:31;;;;;;;;;;;14.20;52.80;;;;;;5094230;28;19947;-70
2022/03/19 04:23:59;;;;;;;;;;;14.20;52.80;;;;;;5075673;28;19924;-71
2022/03/19 04:26:26;;;;;;;;;;;14.20;52.80;;;;;;5093958;28;19935;-71
2022/03/19 04:28:53;;;;;;;;;;;14.20;52.80;;;;;;5092861;28;20465;-70
2022/03/19 04:31:19;;;;;;;;;;;14.20;52.80;;;;;;5076082;28;20364;-71
2022/03/19 04:33:46;;;;;;;;;;;14.20;52.80;;;;;;5093838;28;20411;-70
2022/03/19 04:36:29;;;;;;;;;;;14.20;52.80;;;;;;5075473;28;20452;-70
2022/03/19 04:38:56;;;;;;;;;;;14.20;52.80;;;;;;5094018;28;20342;-70
2022/03/19 04:41:24;;;;;;;;;;;14.20;52.80;;;;;;5093583;28;19924;-69
2022/03/19 04:43:51;;;;;;;;;;;14.20;52.80;;;;;;5075218;28;20019;-70
2022/03/19 04:46:18;;;;;;;;;;;14.20;52.80;;;;;;5093675;28;19928;-70
2022/03/19 04:48:45;;;;;;;;;;;14.20;52.80;;;;;;5093585;28;20074;-70
2022/03/19 04:51:12;;;;;;;;;;;14.20;53.30;;;;;;5093499;28;19924;-70
2022/03/19 04:53:40;;;;;;;;;;;14.20;52.70;;;;;;5075042;28;19934;-69
2022/03/19 04:56:07;;;;;;;;;;;14.20;52.80;;;;;;5075033;28;19928;-69
2022/03/19 04:58:35;;;;;;;;;;;14.20;52.70;;;;;;5093345;28;19924;-70
2022/03/19 05:01:02;;;;;;;;;;;14.20;52.70;;;;;;5075414;28;19930;-70
2022/03/19 05:03:28;;;;;;;;;;;14.20;52.70;;;;;;5092882;28;19978;-70
2022/03/19 05:05:55;;;;;;;;;;;14.40;52.80;;;;;;5075282;28;20387;-70
2022/03/19 05:08:21;;;;;;;;;;;14.20;52.70;;;;;;5075271;28;20285;-70
2022/03/19 05:13:32;;;;;;;;;;;14.20;52.70;;;;;;5074758;28;20006;-70
2022/03/19 05:16:00;;;;;;;;;;;14.20;52.70;;;;;;5074764;28;19924;-70
2022/03/19 05:18:27;;;;;;;;;;;14.10;52.60;;;;;;5093213;28;19977;-70
2022/03/19 05:20:53;;;;;;;;;;;14.10;52.60;;;;;;5074783;28;20019;-69
2022/03/19 05:23:20;;;;;;;;;;;14.20;52.70;;;;;;5074730;28;19924;-70
2022/03/19 05:25:46;;;;;;;;;;;14.20;52.60;;;;;;5074744;28;19929;-70
2022/03/19 05:28:13;;;;;;;;;;;14.10;52.60;;;;;;5074939;28;19924;-70
2022/03/19 05:30:40;;;;;;;;;;;14.10;52.60;;;;;;5092527;28;19924;-70
2022/03/19 05:33:08;;;;;;;;;;;14.10;52.60;;;;;;5092362;28;20011;-70
2022/03/19 05:35:34;;;;;;;;;;;14.20;52.60;;;;;;5074785;28;19930;-70
2022/03/19 05:38:01;;;;;;;;;;;14.10;52.60;;;;;;5074554;28;19924;-70
2022/03/19 05:40:28;;;;;;;;;;;14.20;52.60;;;;;;5074501;28;19937;-71
2022/03/19 05:42:54;;;;;;;;;;;14.20;52.60;;;;;;5074417;28;20376;-70
2022/03/19 05:45:21;;;;;;;;;;;14.10;52.50;;;;;;5092733;28;19924;-70
2022/03/19 05:47:48;;;;;;;;;;;14.10;52.60;;;;;;5092449;28;19942;-70
2022/03/19 05:50:16;;;;;;;;;;;14.10;52.60;;;;;;5074633;28;19954;-70
2022/03/19 05:52:42;;;;;;;;;;;14.10;52.50;;;;;;5092376;28;19924;-70
2022/03/19 05:55:09;;;;;;;;;;;14.10;52.50;;;;;;5074398;28;19924;-70
2022/03/19 05:57:35;;;;;;;;;;;14.10;52.50;;;;;;5074414;28;19924;-70
2022/03/19 06:00:03;;;;;;;;;;;14.10;52.50;;;;;;5074590;28;19924;-70
2022/03/19 06:02:29;;;;;;;;;;;14.10;52.50;;;;;;5074056;28;19998;-68
2022/03/19 06:04:56;;;;;;;;;;;14.10;52.50;;;;;;5092210;28;19924;-68
2022/03/19 06:07:24;;;;;;;;;;;14.10;52.50;;;;;;5074716;28;19924;-68
2022/03/19 06:09:50;;;;;;;;;;;14.10;52.50;;;;;;5092221;28;19931;-68
2022/03/19 06:12:17;;;;;;;;;;;14.10;52.50;;;;;;5092131;28;19928;-68
2022/03/19 06:14:43;;;;;;;;;;;14.10;52.50;;;;;;5074543;28;20364;-68
2022/03/19 06:17:10;;;;;;;;;;;14.10;52.50;;;;;;5074033;28;19926;-68
2022/03/19 06:19:37;;;;;;;;;;;14.10;52.50;;;;;;5091829;28;19928;-68
2022/03/19 06:22:03;;;;;;;;;;;14.10;52.50;;;;;;5092157;28;19924;-70
2022/03/19 06:24:31;;;;;;;;;;;14.10;52.50;;;;;;5091948;28;19924;-68
2022/03/19 06:26:58;;;;;;;;;;;14.10;52.50;;;;;;5092303;28;20012;-68
2022/03/19 06:29:25;;;;;;;;;;;14.10;52.50;;;;;;5074373;28;20311;-68
2022/03/19 06:31:51;;;;;;;;;;;14.10;52.40;;;;;;5091913;28;20431;-68
2022/03/19 06:34:18;;;;;;;;;;;14.10;52.40;;;;;;5092072;28;19924;-69
2022/03/19 06:39:28;;;;;;;;;;;14.10;52.40;;;;;;5074246;28;19924;-70
2022/03/19 06:41:56;;;;;;;;;;;14.10;52.40;;;;;;5074144;28;19930;-70
2022/03/19 06:44:23;;;;;;;;;;;14.10;52.40;;;;;;5091502;28;19939;-70
2022/03/19 06:46:50;;;;;;;;;;;14.10;52.40;;;;;;5092222;28;19924;-71
2022/03/19 06:49:16;;;;;;;;;;;14.10;52.40;;;;;;5074233;28;19928;-70
2022/03/19 06:51:43;;;;;;;;;;;14.10;52.40;;;;;;5074744;28;19931;-70
2022/03/19 06:54:10;;;;;;;;;;;14.30;52.40;;;;;;5095595;28;20310;-70
2022/03/19 06:56:36;;;;;;;;;;;14.40;52.10;;;;;;5077606;28;19956;-69
2022/03/19 06:59:04;;;;;;;;;;;14.40;51.90;;;;;;5077475;28;19924;-70
2022/03/19 07:01:31;;;;;;;;;;;14.50;51.80;;;;;;5095656;28;19932;-70
2022/03/19 07:03:57;;;;;;;;;;;14.50;51.70;;;;;;5094928;28;19982;-70
2022/03/19 07:06:24;;;;;;;;;;;14.40;51.70;;;;;;5077734;28;19928;-70
2022/03/19 07:08:52;;;;;;;;;;;14.40;51.70;;;;;;5077582;28;20325;-70
2022/03/19 07:11:21;;;;;;;;;;;15.10;52.20;;;;;;5076998;28;21235;-70
2022/03/19 07:13:47;;;;;;;;;;;14.40;51.80;;;;;;5095269;28;19934;-70
2022/03/19 07:16:16;;;;;;;;;;;14.30;51.80;;;;;;5060542;28;20284;-69
2022/03/19 07:18:42;;;;;;;;;;;14.30;51.80;;;;;;5094835;28;19985;-70
2022/03/19 07:21:09;;;;;;;;;;;14.30;51.90;;;;;;5094581;28;19932;-69
2022/03/19 07:23:36;;;;;;;;;;;14.30;51.90;;;;;;5076617;28;20402;-70
2022/03/19 07:26:02;;;;;;;;;;;14.30;51.90;;;;;;5076533;28;20006;-69
2022/03/19 07:28:29;;;;;;;;;;;14.30;51.90;;;;;;5094410;28;19934;-70
2022/03/19 07:30:56;;;;;;;;;;;14.30;51.90;;;;;;5094128;28;19924;-70
2022/03/19 07:33:23;;;;;;;;;;;14.30;51.90;;;;;;5094106;28;19950;-70
2022/03/19 07:35:50;;;;;;;;;;;14.30;51.90;;;;;;5093903;28;19930;-69
2022/03/19 07:38:17;;;;;;;;;;;14.30;51.80;;;;;;5094584;28;19930;-69
2022/03/19 07:43:27;;;;;;;;;;;14.40;51.90;;;;;;5095114;28;19932;-70
2022/03/19 07:45:54;;;;;;;;;;;14.40;51.80;;;;;;5077032;28;19924;-70
2022/03/19 07:48:20;;;;;;;;;;;14.40;51.80;;;;;;5094886;28;19924;-69
2022/03/19 07:50:49;;;;;;;;;;;14.40;51.80;;;;;;5076968;28;19947;-68
2022/03/19 07:53:16;;;;;;;;;;;14.40;51.90;;;;;;5094653;28;19930;-68
2022/03/19 07:55:43;;;;;;;;;;;14.50;51.90;;;;;;5094996;28;20295;-69
2022/03/19 07:58:10;;;;;;;;;;;14.50;52.50;;;;;;5095103;28;20285;-69
2022/03/19 08:00:36;;;;;;;;;;;14.60;51.80;;;;;;5076801;28;20372;-69
2022/03/19 08:03:03;;;;;;;;;;;14.60;51.70;;;;;;5094461;28;19928;-69
2022/03/19 08:05:29;;;;;;;;;;;14.70;51.70;;;;;;5094816;28;19928;-70
2022/03/19 08:07:57;;;;;;;;;;;14.70;51.60;;;;;;5076215;28;19931;-67
2022/03/19 08:10:24;;;;;;;;;;;14.70;51.50;;;;;;5076481;28;19924;-69
2022/03/19 08:12:51;;;;;;;;;;;14.80;51.50;;;;;;5075850;28;19931;-70
2022/03/19 08:15:18;;;;;;;;;;;14.80;51.40;;;;;;5075255;28;19985;-69
2022/03/19 08:17:45;;;;;;;;;;;14.80;51.40;;;;;;5094128;28;19923;-67
2022/03/19 08:20:13;;;;;;;;;;;14.90;51.40;;;;;;5075887;28;19924;-71
2022/03/19 08:22:41;;;;;;;;;;;14.90;51.30;;;;;;5075817;28;19924;-70
2022/03/19 08:25:09;;;;;;;;;;;14.90;51.30;;;;;;5071906;28;19928;-72
2022/03/19 08:27:36;;;;;;;;;;;14.90;51.20;;;;;;5076212;28;20269;-71
2022/03/19 08:30:03;;;;;;;;;;;14.90;51.30;;;;;;5093245;28;20300;-68
2022/03/19 08:32:30;;;;;;;;;;;14.90;51.40;;;;;;5075565;28;20011;-71
2022/03/19 08:34:57;;;;;;;;;;;15.00;51.50;;;;;;5076147;28;19931;-70
2022/03/19 08:37:23;;;;;;;;;;;15.00;51.50;;;;;;5075705;28;19925;-71
2022/03/19 08:42:36;;;;;;;;;;;15.00;51.50;;;;;;5093392;28;20002;-68
2022/03/19 08:45:02;;;;;;;;;;;15.00;51.50;;;;;;5075894;28;20392;-68
2022/03/19 08:47:29;;;;;;;;;;;15.10;51.50;;;;;;5075878;28;19924;-70
2022/03/19 08:49:56;;;;;;;;;;;15.10;51.40;;;;;;5075927;28;20010;-69
2022/03/19 08:52:23;;;;;;;;;;;15.20;51.40;;;;;;5075302;28;19925;-68
2022/03/19 08:54:49;;;;;;;;;;;15.20;51.30;;;;;;5075546;28;19924;-68
2022/03/19 08:57:16;;;;;;;;;;;15.20;51.20;;;;;;5075289;28;20465;-69
2022/03/19 08:59:44;;;;;;;;;;;15.20;51.20;;;;;;5093212;28;19924;-68
2022/03/19 09:02:10;;;;;;;;;;;15.30;51.20;;;;;;5093309;28;19924;-70
2022/03/19 09:04:37;;;;;;;;;;;15.30;51.10;;;;;;5074691;28;20385;-70
2022/03/19 09:07:04;;;;;;;;;;;15.30;51.00;;;;;;5093432;28;19969;-71
2022/03/19 09:09:30;;;;;;;;;;;15.30;51.00;;;;;;5093471;28;19974;-70
2022/03/19 09:11:57;;;;;;;;;;;15.30;51.00;;;;;;5075622;28;20385;-70
2022/03/19 09:14:24;;;;;;;;;;;15.40;51.00;;;;;;5073947;28;20023;-70
2022/03/19 09:16:52;;;;;;;;;;;15.30;50.90;;;;;;5072841;28;19946;-70
2022/03/19 09:19:19;;;;;;;;;;;15.40;50.90;;;;;;5073077;28;19978;-70
2022/03/19 09:21:46;;;;;;;;;;;15.40;50.90;;;;;;5054673;28;19932;-69
2022/03/19 09:24:15;;;;;;;;;;;15.40;50.90;;;;;;5072547;28;19974;-69
2022/03/19 09:26:44;;;;;;;;;;;15.40;50.90;;;;;;5054924;28;19928;-69
2022/03/19 09:29:14;;;;;;;;;;;15.50;50.90;;;;;;5074499;28;19932;-69
2022/03/19 09:31:41;;;;;;;;;;;15.50;50.80;;;;;;5093097;28;20397;-68
2022/03/19 09:34:10;;;;;;;;;;;15.50;50.80;;;;;;5092770;28;19924;-69
2022/03/19 09:36:36;;;;;;;;;;;15.60;50.80;;;;;;5092738;28;20009;-71
2022/03/19 09:39:03;;;;;;;;;;;15.60;50.80;;;;;;5092813;28;19974;-71
2022/03/19 09:41:29;;;;;;;;;;;15.60;50.70;;;;;;5092627;28;19924;-71
2022/03/19 09:43:57;;;;;;;;;;;15.60;50.70;;;;;;5073746;28;19924;-71
2022/03/19 09:46:23;;;;;;;;;;;15.60;50.70;;;;;;5073099;28;20384;-72
2022/03/19 09:48:51;;;;;;;;;;;15.60;50.50;;;;;;5074161;28;20135;-72
2022/03/19 09:51:19;;;;;;;;;;;15.70;50.60;;;;;;5071551;28;19925;-69
2022/03/19 09:53:46;;;;;;;;;;;15.70;50.50;;;;;;5092312;28;20295;-72
2022/03/19 09:56:12;;;;;;;;;;;15.70;50.80;;;;;;5074643;28;19924;-72
2022/03/19 09:58:39;;;;;;;;;;;15.80;50.70;;;;;;5074679;28;19924;-72
2022/03/19 10:01:06;;;;;;;;;;;15.80;50.60;;;;;;5092524;28;19932;-72
2022/03/19 10:03:33;;;;;;;;;;;15.90;50.80;;;;;;5074037;28;20292;-73
2022/03/19 10:08:55;;;;;;;;;;;16.00;50.70;;;;;;5074676;28;19920;-72
2022/03/19 10:11:21;;;;;;;;;;;16.00;50.60;;;;;;5074749;28;19930;-72
2022/03/19 10:13:49;;;;;;;;;;;16.10;50.60;;;;;;5074391;28;19930;-72
2022/03/19 10:16:19;;;;;;;;;;;16.10;50.40;;;;;;5074441;28;19975;-71
2022/03/19 10:18:45;;;;;;;;;;;16.10;50.40;;;;;;5069906;28;20727;-72
2022/03/19 10:21:15;;;;;;;;;;;16.10;50.30;;;;;;5064774;28;19924;-72
2022/03/19 10:23:42;;;;;;;;;;;16.20;50.30;;;;;;5074091;28;20376;-72
2022/03/19 10:26:11;;;;;;;;;;;16.20;50.20;;;;;;5076419;28;20296;-70
2022/03/19 10:28:37;;;;;;;;;;;16.20;50.30;;;;;;5096734;28;19973;-70
2022/03/19 10:31:04;;;;;;;;;;;16.30;50.20;;;;;;5078426;28;19928;-70
2022/03/19 10:33:31;;;;;;;;;;;16.30;50.10;;;;;;5096001;28;19924;-70
2022/03/19 10:36:07;;;;;;;;;;;16.30;50.00;;;;;;5077721;28;19924;-70
2022/03/19 10:38:40;;;;;;;;;;;16.40;50.00;;;;;;5078079;28;19928;-70
2022/03/19 10:41:07;;;;;;;;;;;16.40;50.00;;;;;;5096023;28;20329;-70
2022/03/19 10:43:34;;;;;;;;;;;16.40;49.90;;;;;;5077872;28;20291;-70
2022/03/19 10:46:02;;;;;;;;;;;16.40;50.00;;;;;;5077782;28;19924;-70
2022/03/19 10:48:29;;;;;;;;;;;16.40;50.00;;;;;;5096404;28;20022;-70
2022/03/19 10:50:57;;;;;;;;;;;16.40;49.90;;;;;;5096009;28;19931;-70
2022/03/19 10:53:24;;;;;;;;;;;16.50;50.00;;;;;;5096077;28;19959;-70
2022/03/19 10:55:51;;;;;;;;;;;16.50;50.00;;;;;;5095496;28;19977;-69
2022/03/19 10:58:17;;;;;;;;;;;16.50;49.90;;;;;;5077361;28;20288;-70
2022/03/19 11:00:48;;;;;;;;;;;16.50;49.90;;;;;;5095855;28;19963;-70
2022/03/19 11:03:18;;;;;;;;;;;16.50;49.90;;;;;;5077166;28;19931;-69
2022/03/19 11:05:45;;;;;;;;;;;16.50;49.80;;;;;;5077443;28;19940;-69
2022/03/19 11:08:12;;;;;;;;;;;16.50;49.80;;;;;;5077816;28;20292;-70
2022/03/19 11:10:39;;;;;;;;;;;16.60;49.80;;;;;;5077224;28;19935;-70
2022/03/19 11:13:06;;;;;;;;;;;16.60;49.80;;;;;;5095786;28;20283;-69
2022/03/19 11:15:33;;;;;;;;;;;16.60;49.70;;;;;;5095324;28;19924;-70
2022/03/19 11:18:01;;;;;;;;;;;16.60;49.70;;;;;;5095340;28;19931;-70
2022/03/19 11:20:28;;;;;;;;;;;16.60;49.50;;;;;;5076672;28;19928;-70
2022/03/19 11:22:55;;;;;;;;;;;16.60;49.50;;;;;;5077070;28;20312;-70
2022/03/19 11:25:24;;;;;;;;;;;16.70;49.70;;;;;;5076626;28;19932;-70
2022/03/19 11:27:51;;;;;;;;;;;16.70;49.70;;;;;;5074843;28;19977;-70
2022/03/19 11:30:18;;;;;;;;;;;16.70;49.70;;;;;;5076470;28;19924;-70
2022/03/19 11:33:02;;;;;;;;;;;16.70;49.70;;;;;;5094038;28;20025;-70
2022/03/19 11:35:29;;;;;;;;;;;16.70;49.60;;;;;;5076804;28;19928;-70
2022/03/19 11:38:00;;;;;;;;;;;16.70;49.50;;;;;;5076094;28;20015;-70
2022/03/19 11:40:29;;;;;;;;;;;16.70;49.50;;;;;;5076556;28;19985;-70
2022/03/19 11:42:55;;;;;;;;;;;16.70;49.50;;;;;;5094507;28;19931;-70
2022/03/19 11:45:22;;;;;;;;;;;16.70;49.40;;;;;;5076978;28;19924;-68
2022/03/19 11:47:48;;;;;;;;;;;16.70;49.40;;;;;;5076369;28;20281;-70
2022/03/19 11:50:20;;;;;;;;;;;16.70;49.40;;;;;;5094542;28;20398;-70
2022/03/19 11:53:03;;;;;;;;;;;16.70;49.40;;;;;;5076002;28;19932;-70
2022/03/19 11:55:30;;;;;;;;;;;16.70;49.40;;;;;;5091678;28;20308;-70
2022/03/19 11:57:58;;;;;;;;;;;16.70;49.30;;;;;;5075449;28;19924;-69
2022/03/19 12:00:26;;;;;;;;;;;16.70;49.30;;;;;;5075913;28;19924;-69
2022/03/19 12:03:03;;;;;;;;;;;16.70;49.30;;;;;;5075397;28;20306;-69
2022/03/19 12:05:31;;;;;;;;;;;16.70;48.90;;;;;;5070321;28;19924;-69
2022/03/19 12:07:58;;;;;;;;;;;16.70;49.30;;;;;;5074370;28;19924;-70
2022/03/19 12:10:24;;;;;;;;;;;16.70;49.40;;;;;;5086642;28;20307;-70
2022/03/19 12:12:51;;;;;;;;;;;16.80;49.40;;;;;;5092243;28;19932;-69
2022/03/19 12:15:36;;;;;;;;;;;16.80;49.40;;;;;;5094451;28;19924;-70
2022/03/19 12:18:18;;;;;;;;;;;16.80;49.40;;;;;;5076100;28;19931;-68
2022/03/19 12:20:45;;;;;;;;;;;16.60;49.20;;;;;;5055591;28;19924;-70
2022/03/19 12:23:12;;;;;;;;;;;16.80;49.30;;;;;;5073689;28;19931;-69
2022/03/19 12:25:40;;;;;;;;;;;16.80;49.40;;;;;;5078263;28;19932;-69
2022/03/19 12:28:08;;;;;;;;;;;16.80;49.30;;;;;;5076134;28;19975;-68
2022/03/19 12:30:35;;;;;;;;;;;16.80;49.30;;;;;;5094218;28;20373;-70
2022/03/19 12:33:02;;;;;;;;;;;16.80;49.20;;;;;;5093859;28;19924;-69
2022/03/19 12:35:37;;;;;;;;;;;16.80;49.10;;;;;;5093685;28;20396;-70
2022/03/19 12:38:05;;;;;;;;;;;16.80;49.20;;;;;;5075907;28;19936;-68
2022/03/19 12:41:23;;;;;;;;;;;16.70;49.10;;;;;;5093776;28;19924;-68
2022/03/19 12:43:19;;;;;;;;;;;16.80;48.90;;;;;;5092902;28;19950;-68
2022/03/19 12:45:47;;;;;;;;;;;16.70;48.90;;;;;;5075520;28;19924;-68
2022/03/19 12:48:14;;;;;;;;;;;16.70;49.00;;;;;;5074974;28;19924;-68
2022/03/19 12:50:41;;;;;;;;;;;16.70;49.00;;;;;;5092897;28;19928;-69
2022/03/19 12:53:09;;;;;;;;;;;16.70;48.70;;;;;;5075061;28;20285;-68
2022/03/19 12:55:36;;;;;;;;;;;16.70;48.70;;;;;;5075561;28;19924;-67
2022/03/19 12:58:03;;;;;;;;;;;16.60;48.90;;;;;;5075086;28;19932;-68
2022/03/19 13:00:29;;;;;;;;;;;16.60;49.00;;;;;;5093545;28;19930;-68
2022/03/19 13:02:56;;;;;;;;;;;16.60;49.20;;;;;;5075241;28;19924;-67
2022/03/19 13:05:23;;;;;;;;;;;16.60;48.90;;;;;;5075319;28;19924;-68
2022/03/19 13:08:05;;;;;;;;;;;16.60;49.20;;;;;;5093169;28;20380;-68
2022/03/19 13:10:41;;;;;;;;;;;16.60;49.30;;;;;;5074894;28;19928;-69
2022/03/19 13:13:08;;;;;;;;;;;16.60;49.40;;;;;;5093155;28;19967;-68
2022/03/19 13:15:34;;;;;;;;;;;16.70;49.50;;;;;;5092866;28;19924;-68
2022/03/19 13:18:01;;;;;;;;;;;16.70;49.50;;;;;;5093010;28;19939;-68
2022/03/19 13:20:27;;;;;;;;;;;16.70;49.40;;;;;;5074939;28;19930;-68
2022/03/19 13:22:58;;;;;;;;;;;16.70;49.40;;;;;;5092740;28;19924;-69
2022/03/19 13:25:25;;;;;;;;;;;16.70;49.50;;;;;;5093007;28;19924;-68
2022/03/19 13:27:56;;;;;;;;;;;16.70;49.50;;;;;;5074981;28;19924;-68
2022/03/19 13:30:22;;;;;;;;;;;16.70;49.50;;;;;;5075155;28;19925;-67
2022/03/19 13:32:49;;;;;;;;;;;16.70;49.50;;;;;;5074059;28;19931;-68
2022/03/19 13:35:17;;;;;;;;;;;16.70;49.50;;;;;;5074576;28;19930;-68
2022/03/19 13:37:43;;;;;;;;;;;16.70;49.50;;;;;;5092964;28;19924;-68
2022/03/19 13:40:13;;;;;;;;;;;16.70;49.50;;;;;;5074931;28;19969;-68
2022/03/19 13:42:39;;;;;;;;;;;16.70;49.50;;;;;;5092333;28;20300;-68
2022/03/19 13:45:08;;;;;;;;;;;16.70;49.50;;;;;;5092796;28;19924;-68
2022/03/19 13:47:35;;;;;;;;;;;16.70;49.50;;;;;;5092460;28;19950;-68
2022/03/19 13:50:02;;;;;;;;;;;16.70;49.50;;;;;;5074742;28;19928;-68
2022/03/19 13:52:29;;;;;;;;;;;16.70;49.40;;;;;;5092410;28;20313;-68
2022/03/19 13:54:57;;;;;;;;;;;16.70;49.50;;;;;;5092497;28;19924;-69
2022/03/19 13:57:23;;;;;;;;;;;16.70;49.50;;;;;;5074008;28;19967;-68
2022/03/19 13:59:50;;;;;;;;;;;16.70;49.40;;;;;;5092168;28;20452;-68
2022/03/19 14:02:23;;;;;;;;;;;16.70;49.30;;;;;;5091673;28;20399;-68
2022/03/19 14:04:50;;;;;;;;;;;16.60;49.30;;;;;;5088971;28;19930;-68
2022/03/19 14:07:17;;;;;;;;;;;16.60;49.40;;;;;;5090838;28;20300;-68
2022/03/19 14:09:44;;;;;;;;;;;16.60;49.20;;;;;;5090594;28;20339;-67
2022/03/19 14:12:11;;;;;;;;;;;16.50;49.20;;;;;;5092060;28;19924;-68
2022/03/19 14:14:37;;;;;;;;;;;16.50;49.20;;;;;;5092043;28;19924;-69
2022/03/19 14:17:04;;;;;;;;;;;16.50;49.20;;;;;;5074128;28;19924;-68
2022/03/19 14:19:32;;;;;;;;;;;16.50;49.10;;;;;;5074017;28;19924;-68
2022/03/19 14:21:59;;;;;;;;;;;16.40;49.20;;;;;;5072290;28;20370;-68
2022/03/19 14:24:28;;;;;;;;;;;16.40;49.20;;;;;;5071783;28;19924;-68
2022/03/19 14:26:56;;;;;;;;;;;16.40;49.20;;;;;;5072087;28;20423;-68
2022/03/19 14:29:23;;;;;;;;;;;16.40;49.20;;;;;;5072200;28;19950;-68
2022/03/19 14:31:50;;;;;;;;;;;16.40;49.20;;;;;;5054261;28;19924;-68
2022/03/19 14:34:16;;;;;;;;;;;16.40;49.20;;;;;;5071507;28;19924;-67